createdAt,value
2018-05-23T00:00:04.216Z,12.68
2018-05-23T00:01:30.393Z,12.65
2018-05-23T00:02:57.727Z,12.60
2018-05-23T00:04:26.193Z,12.56
2018-05-23T00:05:52.412Z,12.52
2018-05-23T00:07:20.891Z,12.49
2018-05-23T00:08:47.295Z,12.45
2018-05-23T00:10:15.612Z,12.43
2018-05-23T00:11:41.904Z,12.42
2018-05-23T00:13:09.368Z,12.42
2018-05-23T00:14:37.642Z,12.43
2018-05-23T00:16:04.080Z,12.46
2018-05-23T00:17:31.426Z,12.48
2018-05-23T00:18:59.667Z,12.51
2018-05-23T00:20:26.754Z,12.54
2018-05-23T00:21:54.274Z,12.54
2018-05-23T00:23:21.571Z,12.55
2018-05-23T00:24:48.005Z,12.54
2018-05-23T00:26:16.197Z,12.53
2018-05-23T00:27:42.463Z,12.51
2018-05-23T00:29:10.835Z,12.50
2018-05-23T00:30:37.087Z,12.51
2018-05-23T00:32:05.462Z,12.51
2018-05-23T00:33:31.709Z,12.54
2018-05-23T00:34:58.995Z,12.54
2018-05-23T00:36:26.378Z,12.55
2018-05-23T00:37:54.762Z,12.55
2018-05-23T00:39:20.996Z,12.56
2018-05-23T00:40:48.493Z,12.55
2018-05-23T00:42:16.667Z,12.53
2018-05-23T00:43:43.996Z,12.49
2018-05-23T00:45:11.261Z,12.46
2018-05-23T00:46:37.475Z,12.44
2018-05-23T00:48:05.972Z,12.41
2018-05-23T00:49:32.192Z,12.38
2018-05-23T00:50:59.673Z,12.34
2018-05-23T00:52:27.039Z,12.29
2018-05-23T00:53:54.238Z,12.25
2018-05-23T00:55:21.616Z,12.23
2018-05-23T00:56:49.054Z,12.25
2018-05-23T00:58:16.474Z,12.26
2018-05-23T00:59:44.992Z,12.23
2018-05-23T01:01:12.143Z,12.21
2018-05-23T01:02:38.331Z,12.19
2018-05-23T01:04:05.578Z,12.18
2018-05-23T01:05:32.893Z,12.21
2018-05-23T01:06:59.887Z,12.23
2018-05-23T01:08:28.274Z,12.25
2018-05-23T01:09:54.513Z,12.25
2018-05-23T01:11:24.920Z,12.24
2018-05-23T01:12:49.307Z,12.23
2018-05-23T01:14:16.344Z,12.23
2018-05-23T01:15:43.702Z,12.24
2018-05-23T01:17:11.133Z,12.21
2018-05-23T01:18:38.526Z,12.19
2018-05-23T01:20:05.800Z,12.18
2018-05-23T01:21:33.272Z,12.16
2018-05-23T01:23:00.408Z,12.09
2018-05-23T01:24:27.790Z,12.06
2018-05-23T01:25:55.990Z,12.03
2018-05-23T01:27:23.167Z,11.99
2018-05-23T01:28:49.545Z,11.96
2018-05-23T01:30:16.892Z,11.92
2018-05-23T01:31:44.292Z,11.88
2018-05-23T01:33:11.734Z,11.87
2018-05-23T01:34:39.178Z,11.85
2018-05-23T01:36:06.512Z,11.87
2018-05-23T01:37:33.862Z,11.87
2018-05-23T01:39:00.984Z,11.86
2018-05-23T01:40:28.308Z,11.86
2018-05-23T01:41:55.516Z,11.83
2018-05-23T01:43:22.817Z,11.81
2018-05-23T01:44:50.193Z,11.79
2018-05-23T01:46:18.737Z,11.81
2018-05-23T01:47:45.159Z,11.83
2018-05-23T01:49:12.483Z,11.82
2018-05-23T01:50:39.860Z,11.80
2018-05-23T01:52:07.274Z,11.75
2018-05-23T01:53:35.757Z,11.71
2018-05-23T01:55:02.862Z,11.66
2018-05-23T01:56:30.340Z,11.59
2018-05-23T01:57:57.356Z,11.52
2018-05-23T01:59:24.474Z,11.47
2018-05-23T02:00:50.750Z,11.43
2018-05-23T02:02:19.018Z,11.40
2018-05-23T02:03:45.025Z,11.39
2018-05-23T02:05:12.487Z,11.38
2018-05-23T02:06:39.491Z,11.36
2018-05-23T02:08:06.841Z,11.35
2018-05-23T02:09:34.150Z,11.32
2018-05-23T02:11:02.296Z,11.29
2018-05-23T02:12:29.582Z,11.29
2018-05-23T02:13:55.868Z,11.31
2018-05-23T02:15:24.305Z,11.29
2018-05-23T02:16:51.537Z,11.24
2018-05-23T02:18:18.777Z,11.25
2018-05-23T02:19:46.140Z,11.29
2018-05-23T02:21:12.341Z,11.31
2018-05-23T02:22:39.774Z,11.34
2018-05-23T02:24:08.203Z,11.37
2018-05-23T02:25:34.378Z,11.37
2018-05-23T02:27:01.738Z,11.36
2018-05-23T02:28:29.975Z,11.37
2018-05-23T02:29:56.291Z,11.38
2018-05-23T02:31:23.623Z,11.37
2018-05-23T02:32:51.859Z,11.32
2018-05-23T02:34:18.208Z,11.26
2018-05-23T02:35:45.503Z,11.20
2018-05-23T02:37:13.033Z,11.14
2018-05-23T02:38:41.324Z,11.11
2018-05-23T02:40:07.775Z,11.06
2018-05-23T02:41:34.944Z,11.03
2018-05-23T02:43:03.293Z,11.00
2018-05-23T02:44:29.569Z,10.98
2018-05-23T02:45:57.851Z,10.98
2018-05-23T02:47:23.894Z,10.99
2018-05-23T02:48:51.171Z,11.02
2018-05-23T02:50:18.417Z,11.06
2018-05-23T02:51:45.755Z,11.10
2018-05-23T02:53:13.230Z,11.16
2018-05-23T02:54:40.634Z,11.22
2018-05-23T02:56:07.922Z,11.27
2018-05-23T02:57:35.314Z,11.30
2018-05-23T02:59:02.654Z,11.32
2018-05-23T03:00:31.019Z,11.33
2018-05-23T03:01:57.380Z,11.33
2018-05-23T03:03:24.804Z,11.35
2018-05-23T03:04:52.998Z,11.38
2018-05-23T03:06:20.340Z,11.39
2018-05-23T03:07:47.753Z,11.41
2018-05-23T03:09:14.074Z,11.43
2018-05-23T03:10:42.555Z,11.44
2018-05-23T03:12:09.837Z,11.46
2018-05-23T03:13:36.170Z,11.48
2018-05-23T03:15:04.510Z,11.51
2018-05-23T03:16:30.802Z,11.52
2018-05-23T03:17:58.065Z,11.54
2018-05-23T03:19:25.230Z,11.56
2018-05-23T03:20:53.633Z,11.60
2018-05-23T03:22:20.920Z,11.63
2018-05-23T03:23:47.130Z,11.65
2018-05-23T03:25:15.643Z,11.67
2018-05-23T03:26:42.939Z,11.70
2018-05-23T03:28:09.220Z,11.73
2018-05-23T03:29:37.687Z,11.74
2018-05-23T03:31:05.068Z,11.76
2018-05-23T03:32:32.145Z,11.76
2018-05-23T03:33:58.493Z,11.76
2018-05-23T03:35:25.828Z,11.73
2018-05-23T03:36:52.959Z,11.71
2018-05-23T03:38:21.199Z,11.67
2018-05-23T03:39:47.418Z,11.64
2018-05-23T03:41:15.639Z,11.59
2018-05-23T03:42:42.128Z,11.55
2018-05-23T03:44:10.634Z,11.52
2018-05-23T03:45:37.761Z,11.49
2018-05-23T03:47:04.277Z,11.46
2018-05-23T03:48:31.478Z,11.44
2018-05-23T03:49:59.605Z,11.44
2018-05-23T03:51:26.104Z,11.45
2018-05-23T03:52:53.454Z,11.47
2018-05-23T03:54:20.720Z,11.50
2018-05-23T03:55:49.092Z,11.56
2018-05-23T03:57:16.369Z,11.61
2018-05-23T03:58:43.650Z,11.65
2018-05-23T04:00:11.016Z,11.69
2018-05-23T04:01:38.110Z,11.73
2018-05-23T04:03:04.352Z,11.75
2018-05-23T04:04:31.666Z,11.81
2018-05-23T04:05:59.091Z,11.85
2018-05-23T04:07:26.179Z,11.87
2018-05-23T04:08:53.592Z,11.89
2018-05-23T04:10:22.020Z,11.91
2018-05-23T04:11:49.280Z,11.91
2018-05-23T04:13:16.722Z,11.89
2018-05-23T04:14:43.205Z,11.89
2018-05-23T04:16:11.580Z,11.90
2018-05-23T04:17:37.924Z,11.90
2018-05-23T04:19:05.347Z,11.91
2018-05-23T04:20:32.596Z,11.92
2018-05-23T04:22:00.013Z,11.94
2018-05-23T04:23:27.324Z,11.97
2018-05-23T04:24:54.619Z,11.99
2018-05-23T04:26:24.801Z,12.02
2018-05-23T04:27:50.035Z,12.02
2018-05-23T04:29:17.407Z,12.03
2018-05-23T04:30:43.684Z,12.05
2018-05-23T04:32:10.961Z,12.07
2018-05-23T04:33:39.312Z,12.10
2018-05-23T04:35:05.789Z,12.14
2018-05-23T04:36:33.226Z,12.17
2018-05-23T04:38:00.452Z,12.20
2018-05-23T04:39:27.718Z,12.25
2018-05-23T04:40:54.920Z,12.31
2018-05-23T04:42:22.292Z,12.36
2018-05-23T04:43:50.647Z,12.40
2018-05-23T04:45:18.001Z,12.44
2018-05-23T04:46:45.445Z,12.48
2018-05-23T04:48:12.719Z,12.52
2018-05-23T04:49:39.184Z,12.56
2018-05-23T04:51:06.696Z,12.61
2018-05-23T04:52:33.974Z,12.65
2018-05-23T04:54:02.252Z,12.71
2018-05-23T04:55:28.522Z,12.74
2018-05-23T04:56:55.929Z,12.77
2018-05-23T04:58:23.138Z,12.81
2018-05-23T04:59:50.581Z,12.85
2018-05-23T05:01:17.942Z,12.89
2018-05-23T05:02:45.312Z,12.95
2018-05-23T05:04:13.815Z,12.99
2018-05-23T05:05:40.117Z,13.03
2018-05-23T05:07:08.696Z,13.09
2018-05-23T05:08:36.026Z,13.13
2018-05-23T05:10:02.139Z,13.17
2018-05-23T05:11:29.382Z,13.22
2018-05-23T05:12:56.853Z,13.27
2018-05-23T05:14:25.261Z,13.34
2018-05-23T05:15:51.399Z,13.39
2018-05-23T05:17:18.532Z,13.44
2018-05-23T05:18:45.906Z,13.49
2018-05-23T05:20:13.380Z,13.56
2018-05-23T05:21:40.711Z,13.64
2018-05-23T05:23:08.108Z,13.73
2018-05-23T05:24:35.528Z,13.82
2018-05-23T05:26:02.808Z,13.91
2018-05-23T05:27:30.236Z,14.00
2018-05-23T05:28:57.532Z,14.11
2018-05-23T05:30:24.869Z,14.22
2018-05-23T05:31:52.308Z,14.35
2018-05-23T05:33:19.786Z,14.46
2018-05-23T05:34:46.981Z,14.59
2018-05-23T05:36:14.396Z,14.71
2018-05-23T05:37:42.873Z,14.83
2018-05-23T05:39:08.934Z,14.96
2018-05-23T05:40:36.363Z,15.03
2018-05-23T05:42:03.673Z,15.13
2018-05-23T05:43:32.075Z,15.25
2018-05-23T05:44:58.424Z,15.37
2018-05-23T05:46:26.824Z,15.49
2018-05-23T05:47:54.289Z,15.61
2018-05-23T05:49:21.792Z,15.72
2018-05-23T05:50:49.219Z,15.82
2018-05-23T05:52:16.764Z,15.93
2018-05-23T05:53:43.050Z,16.05
2018-05-23T05:55:10.409Z,16.16
2018-05-23T05:56:37.656Z,16.26
2018-05-23T05:58:04.987Z,16.38
2018-05-23T05:59:32.403Z,16.45
2018-05-23T06:01:00.725Z,16.58
2018-05-23T06:02:27.114Z,16.73
2018-05-23T06:03:54.581Z,16.89
2018-05-23T06:05:22.995Z,17.07
2018-05-23T06:06:49.304Z,17.31
2018-05-23T06:08:16.569Z,17.56
2018-05-23T06:09:44.178Z,17.76
2018-05-23T06:11:12.355Z,18.09
2018-05-23T06:12:38.739Z,18.26
2018-05-23T06:14:06.133Z,18.36
2018-05-23T06:15:33.759Z,18.48
2018-05-23T06:17:02.306Z,18.53
2018-05-23T06:18:29.779Z,18.65
2018-05-23T06:19:56.202Z,18.76
2018-05-23T06:21:23.525Z,18.87
2018-05-23T06:22:51.067Z,18.92
2018-05-23T06:24:19.487Z,18.88
2018-05-23T06:25:47.002Z,18.88
2018-05-23T06:27:13.649Z,18.87
2018-05-23T06:28:40.971Z,18.90
2018-05-23T06:30:08.408Z,18.96
2018-05-23T06:31:35.853Z,18.91
2018-05-23T06:33:04.325Z,18.93
2018-05-23T06:34:30.860Z,19.01
2018-05-23T06:35:59.437Z,19.17
2018-05-23T06:37:25.784Z,19.33
2018-05-23T06:38:53.551Z,19.56
2018-05-23T06:40:20.900Z,19.73
2018-05-23T06:41:47.906Z,19.81
2018-05-23T06:43:16.544Z,19.86
2018-05-23T06:44:43.083Z,19.92
2018-05-23T06:46:10.502Z,19.88
2018-05-23T06:47:38.957Z,19.89
2018-05-23T06:49:05.467Z,19.88
2018-05-23T06:50:32.837Z,19.90
2018-05-23T06:52:01.419Z,19.89
2018-05-23T06:53:28.815Z,19.90
2018-05-23T06:54:56.228Z,19.91
2018-05-23T06:56:22.740Z,19.86
2018-05-23T06:57:50.219Z,19.87
2018-05-23T06:59:17.758Z,19.89
2018-05-23T07:00:45.209Z,19.83
2018-05-23T07:02:13.841Z,19.81
2018-05-23T07:03:40.141Z,19.87
2018-05-23T07:05:07.426Z,19.95
2018-05-23T07:06:35.975Z,19.99
2018-05-23T07:08:03.077Z,20.06
2018-05-23T07:09:29.550Z,20.19
2018-05-23T07:10:56.971Z,20.28
2018-05-23T07:12:24.426Z,20.34
2018-05-23T07:13:52.814Z,20.40
2018-05-23T07:15:19.144Z,20.48
2018-05-23T07:16:46.666Z,20.56
2018-05-23T07:18:15.159Z,20.63
2018-05-23T07:19:42.703Z,20.67
2018-05-23T07:21:08.889Z,20.63
2018-05-23T07:22:36.328Z,20.63
2018-05-23T07:24:04.865Z,20.67
2018-05-23T07:25:31.302Z,20.69
2018-05-23T07:26:58.783Z,20.69
2018-05-23T07:28:26.282Z,20.70
2018-05-23T07:29:54.803Z,20.69
2018-05-23T07:31:21.372Z,20.70
2018-05-23T07:32:48.825Z,20.76
2018-05-23T07:34:17.338Z,20.78
2018-05-23T07:35:44.674Z,20.80
2018-05-23T07:37:11.766Z,20.73
2018-05-23T07:38:38.293Z,20.74
2018-05-23T07:40:06.806Z,20.75
2018-05-23T07:41:33.293Z,20.72
2018-05-23T07:43:00.796Z,20.71
2018-05-23T07:44:28.854Z,20.78
2018-05-23T07:45:55.014Z,20.82
2018-05-23T07:47:22.438Z,20.74
2018-05-23T07:48:50.947Z,20.72
2018-05-23T07:50:17.105Z,20.68
2018-05-23T07:51:44.448Z,20.68
2018-05-23T07:53:11.923Z,20.65
2018-05-23T07:54:39.275Z,20.66
2018-05-23T07:56:07.852Z,20.68
2018-05-23T07:57:35.275Z,20.72
2018-05-23T07:59:01.748Z,20.80
2018-05-23T08:00:29.260Z,20.88
2018-05-23T08:01:56.562Z,20.96
2018-05-23T08:03:23.762Z,20.98
2018-05-23T08:04:51.359Z,21.01
2018-05-23T08:06:20.103Z,21.02
2018-05-23T08:07:46.552Z,21.00
2018-05-23T08:09:13.765Z,20.95
2018-05-23T08:10:40.981Z,20.95
2018-05-23T08:12:09.565Z,21.01
2018-05-23T08:13:35.862Z,21.09
2018-05-23T08:15:04.407Z,21.14
2018-05-23T08:16:30.823Z,21.20
2018-05-23T08:17:58.367Z,21.26
2018-05-23T08:19:25.758Z,21.31
2018-05-23T08:20:53.348Z,21.37
2018-05-23T08:22:23.796Z,21.45
2018-05-23T08:23:49.324Z,21.51
2018-05-23T08:25:15.467Z,21.57
2018-05-23T08:26:42.999Z,21.58
2018-05-23T08:28:10.547Z,21.64
2018-05-23T08:29:38.217Z,21.69
2018-05-23T08:31:05.504Z,21.74
2018-05-23T08:32:33.994Z,21.78
2018-05-23T08:34:01.117Z,21.82
2018-05-23T08:35:27.542Z,21.86
2018-05-23T08:36:55.057Z,21.90
2018-05-23T08:38:22.489Z,21.88
2018-05-23T08:39:51.045Z,21.87
2018-05-23T08:41:17.521Z,21.86
2018-05-23T08:42:45.084Z,21.85
2018-05-23T08:44:12.086Z,21.90
2018-05-23T08:45:40.816Z,21.95
2018-05-23T08:47:06.975Z,22.01
2018-05-23T08:48:34.377Z,22.09
2018-05-23T08:50:01.946Z,22.16
2018-05-23T08:51:29.397Z,22.19
2018-05-23T08:52:56.890Z,22.23
2018-05-23T08:54:24.360Z,22.25
2018-05-23T08:55:51.755Z,22.29
2018-05-23T08:57:19.273Z,22.31
2018-05-23T08:58:46.663Z,22.35
2018-05-23T09:00:14.073Z,22.38
2018-05-23T09:01:41.691Z,22.42
2018-05-23T09:03:09.283Z,22.44
2018-05-23T09:04:36.373Z,22.36
2018-05-23T09:06:04.821Z,22.39
2018-05-23T09:07:32.401Z,22.46
2018-05-23T09:08:58.694Z,22.51
2018-05-23T09:10:26.079Z,22.58
2018-05-23T09:11:54.540Z,22.68
2018-05-23T09:13:21.084Z,22.69
2018-05-23T09:14:48.771Z,22.74
2018-05-23T09:16:16.035Z,22.80
2018-05-23T09:17:43.705Z,22.82
2018-05-23T09:19:12.255Z,22.79
2018-05-23T09:20:38.599Z,22.78
2018-05-23T09:22:06.999Z,22.78
2018-05-23T09:23:33.645Z,22.76
2018-05-23T09:25:02.176Z,22.79
2018-05-23T09:26:28.651Z,22.83
2018-05-23T09:27:56.092Z,22.79
2018-05-23T09:29:23.547Z,22.75
2018-05-23T09:30:51.298Z,22.77
2018-05-23T09:32:18.388Z,22.77
2018-05-23T09:33:45.923Z,22.81
2018-05-23T09:35:13.475Z,22.88
2018-05-23T09:36:41.031Z,22.94
2018-05-23T09:38:09.650Z,22.95
2018-05-23T09:39:35.935Z,22.94
2018-05-23T09:41:04.137Z,22.99
2018-05-23T09:42:30.626Z,23.01
2018-05-23T09:43:58.102Z,23.06
2018-05-23T09:45:25.467Z,23.05
2018-05-23T09:46:52.930Z,23.06
2018-05-23T09:48:20.523Z,23.02
2018-05-23T09:49:48.071Z,22.95
2018-05-23T09:51:15.830Z,22.82
2018-05-23T09:52:44.260Z,22.81
2018-05-23T09:54:10.678Z,22.84
2018-05-23T09:55:38.267Z,22.87
2018-05-23T09:57:05.757Z,22.86
2018-05-23T09:58:33.113Z,22.91
2018-05-23T10:00:00.496Z,22.97
2018-05-23T10:01:29.146Z,23.04
2018-05-23T10:02:55.188Z,23.05
2018-05-23T10:04:22.791Z,23.12
2018-05-23T10:05:51.574Z,23.21
2018-05-23T10:07:19.132Z,23.26
2018-05-23T10:08:45.349Z,23.27
2018-05-23T10:10:14.093Z,23.21
2018-05-23T10:11:41.567Z,23.21
2018-05-23T10:13:08.470Z,23.27
2018-05-23T10:14:35.068Z,23.33
2018-05-23T10:16:02.414Z,23.31
2018-05-23T10:17:29.632Z,23.32
2018-05-23T10:18:58.163Z,23.32
2018-05-23T10:20:25.261Z,23.30
2018-05-23T10:21:51.776Z,23.26
2018-05-23T10:23:18.483Z,23.24
2018-05-23T10:24:45.983Z,23.25
2018-05-23T10:26:12.876Z,23.27
2018-05-23T10:27:40.469Z,23.32
2018-05-23T10:29:07.912Z,23.37
2018-05-23T10:30:36.398Z,23.42
2018-05-23T10:32:02.733Z,23.43
2018-05-23T10:33:31.297Z,23.43
2018-05-23T10:34:59.281Z,23.48
2018-05-23T10:36:24.988Z,23.50
2018-05-23T10:39:19.418Z,23.57
2018-05-23T10:40:46.919Z,23.57
2018-05-23T10:42:15.457Z,23.58
2018-05-23T10:43:43.063Z,23.60
2018-05-23T10:45:09.450Z,23.60
2018-05-23T10:46:40.093Z,23.64
2018-05-23T10:48:04.688Z,23.70
2018-05-23T10:49:32.013Z,23.74
2018-05-23T10:51:00.360Z,23.72
2018-05-23T10:52:26.967Z,23.72
2018-05-23T10:53:54.322Z,23.76
2018-05-23T10:55:22.034Z,23.82
2018-05-23T10:56:49.581Z,23.91
2018-05-23T10:58:17.838Z,23.96
2018-05-23T10:59:45.478Z,24.08
2018-05-23T11:01:11.816Z,24.08
2018-05-23T11:02:39.342Z,24.18
2018-05-23T11:04:07.797Z,24.44
2018-05-23T11:05:34.629Z,24.51
2018-05-23T11:07:01.967Z,24.60
2018-05-23T11:08:30.757Z,24.69
2018-05-23T11:09:56.908Z,24.71
2018-05-23T11:11:25.284Z,24.58
2018-05-23T11:12:52.809Z,24.48
2018-05-23T11:14:19.410Z,24.33
2018-05-23T11:15:48.002Z,24.50
2018-05-23T11:17:14.471Z,24.74
2018-05-23T11:18:43.259Z,24.97
2018-05-23T11:20:09.889Z,25.12
2018-05-23T11:21:37.503Z,25.36
2018-05-23T11:23:05.069Z,25.59
2018-05-23T11:24:33.647Z,25.73
2018-05-23T11:26:01.255Z,25.77
2018-05-23T11:27:27.777Z,25.87
2018-05-23T11:28:55.267Z,26.00
2018-05-23T11:30:23.948Z,26.10
2018-05-23T11:31:50.569Z,26.14
2018-05-23T11:33:18.102Z,26.24
2018-05-23T11:34:45.843Z,26.37
2018-05-23T11:36:13.268Z,26.20
2018-05-23T11:37:40.831Z,26.21
2018-05-23T11:39:08.318Z,26.34
2018-05-23T11:40:36.838Z,26.40
2018-05-23T11:42:03.059Z,26.54
2018-05-23T11:43:30.598Z,26.53
2018-05-23T11:44:57.906Z,26.54
2018-05-23T11:46:25.612Z,26.69
2018-05-23T11:47:52.994Z,26.97
2018-05-23T11:49:21.666Z,27.06
2018-05-23T11:50:48.290Z,26.89
2018-05-23T11:52:17.023Z,26.75
2018-05-23T11:53:44.631Z,26.86
2018-05-23T11:55:11.304Z,26.76
2018-05-23T11:56:40.032Z,26.58
2018-05-23T11:58:06.624Z,26.48
2018-05-23T11:59:34.348Z,26.36
2018-05-23T12:01:02.800Z,26.43
2018-05-23T12:02:29.395Z,26.58
2018-05-23T12:03:58.140Z,26.63
2018-05-23T12:05:24.503Z,26.51
2018-05-23T12:06:52.305Z,26.72
2018-05-23T12:08:19.705Z,26.76
2018-05-23T12:09:47.379Z,26.89
2018-05-23T12:11:15.182Z,26.90
2018-05-23T12:12:42.495Z,26.96
2018-05-23T12:14:10.985Z,26.95
2018-05-23T12:15:37.701Z,26.85
2018-05-23T12:17:04.864Z,26.89
2018-05-23T12:18:32.410Z,26.95
2018-05-23T12:20:00.018Z,26.87
2018-05-23T12:21:27.511Z,26.84
2018-05-23T12:22:54.886Z,26.84
2018-05-23T12:24:22.606Z,26.87
2018-05-23T12:25:51.316Z,26.87
2018-05-23T12:27:17.635Z,26.90
2018-05-23T12:28:45.335Z,26.79
2018-05-23T12:30:12.741Z,26.74
2018-05-23T12:31:40.331Z,26.76
2018-05-23T12:33:08.908Z,26.75
2018-05-23T12:34:35.650Z,26.76
2018-05-23T12:36:03.225Z,26.72
2018-05-23T12:37:30.901Z,26.67
2018-05-23T12:38:58.525Z,26.65
2018-05-23T12:40:26.153Z,26.68
2018-05-23T12:41:53.728Z,26.65
2018-05-23T12:43:22.347Z,26.66
2018-05-23T12:44:49.755Z,26.63
2018-05-23T12:46:16.412Z,26.56
2018-05-23T12:47:44.029Z,26.49
2018-05-23T12:49:11.734Z,26.42
2018-05-23T12:50:42.467Z,26.50
2018-05-23T12:52:08.060Z,26.52
2018-05-23T12:53:34.556Z,26.36
2018-05-23T12:55:03.189Z,26.40
2018-05-23T12:56:29.920Z,26.51
2018-05-23T12:57:57.398Z,26.54
2018-05-23T12:59:24.830Z,26.36
2018-05-23T13:00:52.373Z,26.23
2018-05-23T13:02:20.149Z,26.18
2018-05-23T13:03:47.740Z,26.01
2018-05-23T13:05:15.003Z,25.93
2018-05-23T13:06:43.665Z,25.94
2018-05-23T13:08:10.179Z,25.93
2018-05-23T13:09:37.825Z,25.93
2018-05-23T13:11:05.531Z,25.89
2018-05-23T13:12:34.327Z,25.89
2018-05-23T13:14:00.234Z,25.81
2018-05-23T13:15:27.857Z,25.71
2018-05-23T13:16:56.414Z,25.58
2018-05-23T13:18:23.980Z,25.48
2018-05-23T13:19:50.175Z,25.40
2018-05-23T13:21:17.603Z,25.30
2018-05-23T13:22:45.117Z,25.25
2018-05-23T13:24:12.873Z,25.17
2018-05-23T13:25:40.474Z,25.11
2018-05-23T13:27:09.062Z,25.06
2018-05-23T13:28:36.543Z,24.98
2018-05-23T13:30:02.957Z,24.87
2018-05-23T13:31:30.679Z,24.80
2018-05-23T13:32:59.256Z,24.77
2018-05-23T13:34:25.696Z,24.76
2018-05-23T13:35:53.436Z,24.76
2018-05-23T13:37:21.028Z,24.77
2018-05-23T13:38:48.600Z,24.69
2018-05-23T13:40:17.114Z,24.62
2018-05-23T13:41:44.223Z,24.54
2018-05-23T13:43:10.853Z,24.48
2018-05-23T13:44:38.514Z,24.45
2018-05-23T13:46:06.059Z,24.42
2018-05-23T13:47:33.826Z,24.24
2018-05-23T13:49:02.265Z,24.11
2018-05-23T13:50:29.444Z,23.98
2018-05-23T13:51:55.845Z,23.98
2018-05-23T13:53:23.518Z,23.91
2018-05-23T13:54:51.181Z,23.90
2018-05-23T13:56:18.896Z,23.95
2018-05-23T13:57:46.568Z,24.00
2018-05-23T13:59:14.081Z,23.86
2018-05-23T14:00:42.689Z,23.84
2018-05-23T14:02:09.185Z,23.86
2018-05-23T14:03:36.624Z,23.89
2018-05-23T14:05:04.169Z,23.89
2018-05-23T14:06:31.305Z,23.87
2018-05-23T14:07:59.739Z,23.86
2018-05-23T14:09:26.045Z,23.88
2018-05-23T14:10:53.597Z,23.85
2018-05-23T14:12:22.294Z,23.84
2018-05-23T14:13:48.825Z,23.85
2018-05-23T14:15:16.071Z,23.81
2018-05-23T14:16:43.591Z,23.82
2018-05-23T14:18:11.175Z,23.81
2018-05-23T14:19:38.721Z,23.77
2018-05-23T14:21:07.331Z,23.78
2018-05-23T14:22:33.778Z,23.80
2018-05-23T14:24:01.087Z,23.75
2018-05-23T14:25:28.544Z,23.69
2018-05-23T14:26:56.124Z,23.68
2018-05-23T14:28:23.523Z,23.71
2018-05-23T14:29:52.055Z,23.67
2018-05-23T14:31:18.753Z,23.66
2018-05-23T14:32:46.306Z,23.65
2018-05-23T14:34:13.862Z,23.62
2018-05-23T14:35:40.904Z,23.52
2018-05-23T14:37:08.341Z,23.49
2018-05-23T14:38:35.995Z,23.49
2018-05-23T14:40:03.398Z,23.50
2018-05-23T14:41:30.940Z,23.49
2018-05-23T14:42:58.398Z,23.49
2018-05-23T14:44:26.806Z,23.46
2018-05-23T14:45:52.863Z,23.36
2018-05-23T14:47:20.668Z,23.27
2018-05-23T14:48:48.132Z,23.21
2018-05-23T14:50:15.727Z,23.23
2018-05-23T14:51:43.895Z,23.22
2018-05-23T14:53:10.419Z,23.18
2018-05-23T14:54:38.045Z,23.17
2018-05-23T14:56:05.551Z,23.14
2018-05-23T14:57:34.198Z,23.14
2018-05-23T14:59:01.878Z,23.12
2018-05-23T15:00:29.316Z,23.09
2018-05-23T15:01:56.651Z,23.07
2018-05-23T15:03:23.330Z,23.09
2018-05-23T15:04:50.888Z,23.09
2018-05-23T15:06:19.080Z,23.09
2018-05-23T15:07:46.533Z,23.08
2018-05-23T15:09:13.138Z,23.09
2018-05-23T15:10:40.707Z,23.11
2018-05-23T15:12:07.565Z,23.12
2018-05-23T15:13:36.103Z,23.13
2018-05-23T15:15:02.630Z,23.09
2018-05-23T15:16:30.040Z,23.09
2018-05-23T15:17:58.574Z,23.10
2018-05-23T15:19:25.953Z,23.08
2018-05-23T15:20:52.629Z,23.08
2018-05-23T15:22:20.140Z,23.08
2018-05-23T15:23:47.550Z,23.08
2018-05-23T15:25:14.980Z,23.10
2018-05-23T15:26:42.315Z,23.13
2018-05-23T15:28:09.278Z,23.15
2018-05-23T15:29:36.857Z,23.16
2018-05-23T15:31:04.109Z,23.12
2018-05-23T15:32:32.597Z,23.08
2018-05-23T15:33:59.963Z,23.07
2018-05-23T15:35:27.620Z,23.03
2018-05-23T15:36:53.698Z,23.01
2018-05-23T15:38:22.290Z,22.99
2018-05-23T15:39:49.550Z,22.96
2018-05-23T15:41:15.798Z,22.92
2018-05-23T15:42:43.243Z,22.90
2018-05-23T15:44:11.977Z,22.89
2018-05-23T15:45:38.527Z,22.87
2018-05-23T15:47:06.170Z,22.84
2018-05-23T15:48:33.226Z,22.81
2018-05-23T15:50:01.867Z,22.79
2018-05-23T15:51:28.273Z,22.79
2018-05-23T15:52:55.576Z,22.78
2018-05-23T15:54:23.953Z,22.76
2018-05-23T15:55:50.535Z,22.74
2018-05-23T15:57:18.250Z,22.72
2018-05-23T15:58:46.822Z,22.68
2018-05-23T16:00:13.386Z,22.67
2018-05-23T16:01:41.025Z,22.66
2018-05-23T16:03:08.444Z,22.66
2018-05-23T16:04:36.118Z,22.61
2018-05-23T16:06:04.737Z,22.58
2018-05-23T16:07:31.154Z,22.59
2018-05-23T16:08:59.850Z,22.59
2018-05-23T16:10:26.238Z,22.59
2018-05-23T16:11:55.042Z,22.57
2018-05-23T16:13:21.469Z,22.56
2018-05-23T16:14:49.147Z,22.54
2018-05-23T16:16:16.533Z,22.52
2018-05-23T16:17:44.153Z,22.49
2018-05-23T16:19:11.515Z,22.46
2018-05-23T16:20:39.032Z,22.47
2018-05-23T16:22:06.468Z,22.48
2018-05-23T16:23:35.062Z,22.50
2018-05-23T16:25:02.396Z,22.47
2018-05-23T16:26:29.951Z,22.47
2018-05-23T16:27:57.426Z,22.44
2018-05-23T16:29:23.964Z,22.46
2018-05-23T16:30:51.393Z,22.45
2018-05-23T16:32:18.528Z,22.41
2018-05-23T16:33:46.126Z,22.35
2018-05-23T16:35:13.946Z,22.35
2018-05-23T16:36:41.400Z,22.33
2018-05-23T16:38:08.617Z,22.33
2018-05-23T16:39:36.110Z,22.32
2018-05-23T16:41:03.324Z,22.28
2018-05-23T16:42:31.502Z,22.22
2018-05-23T16:43:58.979Z,22.19
2018-05-23T16:45:25.526Z,22.17
2018-05-23T16:46:53.096Z,22.17
2018-05-23T16:48:20.697Z,22.17
2018-05-23T16:49:47.577Z,22.16
2018-05-23T16:51:15.147Z,22.15
2018-05-23T16:52:43.895Z,22.15
2018-05-23T16:54:10.426Z,22.12
2018-05-23T16:55:37.843Z,22.10
2018-05-23T16:57:05.421Z,22.09
2018-05-23T16:58:32.910Z,22.07
2018-05-23T17:00:00.477Z,22.05
2018-05-23T17:01:27.902Z,22.03
2018-05-23T17:02:55.374Z,22.02
2018-05-23T17:04:22.550Z,22.02
2018-05-23T17:05:51.197Z,22.02
2018-05-23T17:07:17.846Z,22.02
2018-05-23T17:08:45.282Z,21.99
2018-05-23T17:10:13.988Z,21.97
2018-05-23T17:11:40.506Z,21.94
2018-05-23T17:13:07.996Z,21.91
2018-05-23T17:14:35.484Z,21.91
2018-05-23T17:16:02.970Z,21.88
2018-05-23T17:17:30.530Z,21.86
2018-05-23T17:18:57.714Z,21.86
2018-05-23T17:20:25.094Z,21.86
2018-05-23T17:21:52.622Z,21.87
2018-05-23T17:23:20.355Z,21.85
2018-05-23T17:24:47.319Z,21.82
2018-05-23T17:26:15.073Z,21.74
2018-05-23T17:27:42.625Z,21.68
2018-05-23T17:29:10.204Z,21.63
2018-05-23T17:30:37.480Z,21.58
2018-05-23T17:32:05.114Z,21.53
2018-05-23T17:33:33.627Z,21.47
2018-05-23T17:34:59.788Z,21.41
2018-05-23T17:36:28.377Z,21.35
2018-05-23T17:37:55.973Z,21.33
2018-05-23T17:39:22.468Z,21.30
2018-05-23T17:40:50.727Z,21.26
2018-05-23T17:42:17.096Z,21.21
2018-05-23T17:43:44.530Z,21.17
2018-05-23T17:45:11.845Z,21.12
2018-05-23T17:46:39.047Z,21.08
2018-05-23T17:48:06.417Z,21.06
2018-05-23T17:49:33.913Z,21.02
2018-05-23T17:51:01.268Z,20.98
2018-05-23T17:52:28.781Z,20.95
2018-05-23T17:53:56.242Z,20.92
2018-05-23T17:55:24.198Z,20.89
2018-05-23T17:56:51.611Z,20.83
2018-05-23T17:58:20.022Z,20.77
2018-05-23T17:59:46.752Z,20.74
2018-05-23T18:01:13.893Z,20.67
2018-05-23T18:02:42.160Z,20.65
2018-05-23T18:04:08.658Z,20.61
2018-05-23T18:05:36.061Z,20.60
2018-05-23T18:07:04.441Z,20.57
2018-05-23T18:08:31.818Z,20.52
2018-05-23T18:09:59.413Z,20.46
2018-05-23T18:11:26.865Z,20.40
2018-05-23T18:12:52.682Z,20.35
2018-05-23T18:14:21.206Z,20.32
2018-05-23T18:15:48.605Z,20.29
2018-05-23T18:17:15.932Z,20.26
2018-05-23T18:18:41.898Z,20.18
2018-05-23T18:20:09.541Z,20.13
2018-05-23T18:21:38.010Z,20.05
2018-05-23T18:23:04.373Z,20.00
2018-05-23T18:24:31.862Z,19.96
2018-05-23T18:26:00.378Z,19.92
2018-05-23T18:27:26.749Z,19.88
2018-05-23T18:28:55.417Z,19.84
2018-05-23T18:30:21.827Z,19.79
2018-05-23T18:31:49.431Z,19.75
2018-05-23T18:33:16.923Z,19.72
2018-05-23T18:34:43.988Z,19.67
2018-05-23T18:36:11.512Z,19.60
2018-05-23T18:37:39.248Z,19.56
2018-05-23T18:39:07.807Z,19.52
2018-05-23T18:40:34.339Z,19.46
2018-05-23T18:42:01.717Z,19.40
2018-05-23T18:43:30.110Z,19.37
2018-05-23T18:44:56.457Z,19.33
2018-05-23T18:46:23.920Z,19.28